DLH1MM LIRF-EDDF
Flight info
| Callsign | DLH1MM |
|---|---|
| Flight time | N/A |
| Altitude | 38000 |
| Route | SOVAN DCT AMTEL DCT BORMI DCT OZE DCT NAXAV DCT UNIMI L12 MOGTI Q163 OLASO/N0455F320 Q163 HAFUN/N0422F240 Q163 ETASA T163 SPESA SPESA5B |
| Aircraft | A320/M-SDE3FGHIRWY/LB1 |
Departure
| Time | 2026-02-18 12:31 |
|---|---|
| Airport | Rome–Fiumicino Leonardo da Vinci International Airport (LIRF) |
Arrival
| Time | N/A |
|---|---|
| Airport | Frankfurt Main Airport (EDDF) |
| Time | Latitude | Longitude | Altitude | Speed | Heading |
|---|---|---|---|---|---|
| 2026-02-18 12:04 | 41.79828 | 12.25552 | 14 ft | 0 kts | 115° |
| 2026-02-18 12:18 | 41.79831 | 12.25545 | 14 ft | 2 kts | 112° |
| 2026-02-18 12:18 | 41.79836 | 12.25512 | 14 ft | 3 kts | 83° |
| 2026-02-18 12:18 | 41.79834 | 12.25495 | 15 ft | 3 kts | 67° |
| 2026-02-18 12:18 | 41.79824 | 12.25472 | 17 ft | 3 kts | 45° |
| 2026-02-18 12:19 | 41.79811 | 12.25457 | 17 ft | 1 kts | 26° |
| 2026-02-18 12:19 | 41.79809 | 12.25456 | 17 ft | 0 kts | 25° |
| 2026-02-18 12:21 | 41.79868 | 12.25493 | 14 ft | 11 kts | 25° |
| 2026-02-18 12:21 | 41.79936 | 12.25536 | 15 ft | 11 kts | 25° |
| 2026-02-18 12:22 | 41.79994 | 12.25576 | 15 ft | 17 kts | 29° |
| 2026-02-18 12:25 | 41.80023 | 12.25554 | 15 ft | 6 kts | 291° |
| 2026-02-18 12:25 | 41.80045 | 12.25476 | 16 ft | 12 kts | 295° |
| 2026-02-18 12:26 | 41.80086 | 12.25366 | 16 ft | 10 kts | 295° |
| 2026-02-18 12:26 | 41.80154 | 12.25379 | 14 ft | 14 kts | 25° |
| 2026-02-18 12:26 | 41.80257 | 12.25433 | 15 ft | 18 kts | 20° |
| 2026-02-18 12:26 | 41.80342 | 12.25564 | 16 ft | 22 kts | 68° |
| 2026-02-18 12:27 | 41.80389 | 12.25735 | 15 ft | 15 kts | 70° |
| 2026-02-18 12:27 | 41.80425 | 12.25862 | 15 ft | 14 kts | 70° |
| 2026-02-18 12:27 | 41.80457 | 12.25978 | 15 ft | 13 kts | 70° |
| 2026-02-18 12:27 | 41.80466 | 12.26013 | 16 ft | 3 kts | 69° |
| 2026-02-18 12:28 | 41.80473 | 12.26038 | 15 ft | 2 kts | 69° |
| 2026-02-18 12:28 | 41.80478 | 12.26056 | 16 ft | 2 kts | 70° |
| 2026-02-18 12:28 | 41.80490 | 12.26100 | 16 ft | 10 kts | 70° |
| 2026-02-18 12:28 | 41.80526 | 12.26230 | 16 ft | 20 kts | 70° |
| 2026-02-18 12:29 | 41.80580 | 12.26426 | 16 ft | 23 kts | 70° |
| 2026-02-18 12:29 | 41.80700 | 12.26863 | 14 ft | 13 kts | 70° |
| 2026-02-18 12:29 | 41.80725 | 12.26953 | 14 ft | 10 kts | 70° |
| 2026-02-18 12:30 | 41.80758 | 12.27025 | 13 ft | 9 kts | 37° |
| 2026-02-18 12:30 | 41.80821 | 12.27034 | 16 ft | 12 kts | 346° |
| 2026-02-18 12:30 | 41.80895 | 12.26999 | 15 ft | 11 kts | 340° |
| 2026-02-18 12:30 | 41.80953 | 12.26948 | 13 ft | 10 kts | 292° |
| 2026-02-18 12:31 | 41.80925 | 12.26806 | 14 ft | 39 kts | 249° |
| 2026-02-18 12:31 | 41.80740 | 12.26140 | 20 ft | 109 kts | 250° |
| 2026-02-18 12:31 | 41.80411 | 12.24947 | 45 ft | 159 kts | 249° |
| 2026-02-18 12:31 | 41.80029 | 12.23555 | 678 ft | 161 kts | 247° |
| 2026-02-18 12:32 | 41.79632 | 12.22137 | 1438 ft | 164 kts | 246° |
| 2026-02-18 12:32 | 41.79215 | 12.20615 | 1884 ft | 186 kts | 251° |
| 2026-02-18 12:32 | 41.79345 | 12.18804 | 2351 ft | 212 kts | 296° |
| 2026-02-18 12:32 | 41.80237 | 12.17193 | 3112 ft | 216 kts | 306° |
| 2026-02-18 12:33 | 41.81181 | 12.15617 | 3983 ft | 218 kts | 306° |
| 2026-02-18 12:33 | 41.83073 | 12.12442 | 5718 ft | 220 kts | 307° |
| 2026-02-18 12:33 | 41.84101 | 12.10926 | 6574 ft | 221 kts | 320° |
| 2026-02-18 12:34 | 41.85473 | 12.09899 | 7174 ft | 238 kts | 340° |
| 2026-02-18 12:34 | 41.87154 | 12.09265 | 7589 ft | 263 kts | 343° |
| 2026-02-18 12:34 | 41.88967 | 12.08640 | 8317 ft | 273 kts | 346° |
| 2026-02-18 12:34 | 41.90847 | 12.08193 | 9306 ft | 275 kts | 347° |
| 2026-02-18 12:35 | 41.92743 | 12.07799 | 10225 ft | 280 kts | 347° |
| 2026-02-18 12:35 | 41.94753 | 12.07394 | 10557 ft | 304 kts | 348° |
| 2026-02-18 12:35 | 41.96925 | 12.06961 | 10824 ft | 327 kts | 348° |
| 2026-02-18 12:35 | 41.99238 | 12.06503 | 11314 ft | 341 kts | 348° |
| 2026-02-18 12:36 | 42.01602 | 12.06035 | 12054 ft | 346 kts | 348° |
| 2026-02-18 12:36 | 42.03997 | 12.05555 | 12829 ft | 350 kts | 347° |
| 2026-02-18 12:36 | 42.06419 | 12.05064 | 13604 ft | 354 kts | 347° |
| 2026-02-18 12:36 | 42.08862 | 12.04566 | 14287 ft | 357 kts | 347° |
| 2026-02-18 12:37 | 42.11331 | 12.04063 | 14987 ft | 360 kts | 347° |
| 2026-02-18 12:37 | 42.16303 | 12.03051 | 16347 ft | 367 kts | 347° |
| 2026-02-18 12:37 | 42.18837 | 12.02533 | 17047 ft | 370 kts | 347° |
| 2026-02-18 12:38 | 42.21390 | 12.02013 | 17703 ft | 372 kts | 347° |
| 2026-02-18 12:38 | 42.23957 | 12.01489 | 18325 ft | 375 kts | 347° |
| 2026-02-18 12:38 | 42.26551 | 12.00959 | 18874 ft | 378 kts | 347° |
| 2026-02-18 12:38 | 42.29164 | 12.00424 | 19432 ft | 381 kts | 347° |
| 2026-02-18 12:39 | 42.31787 | 11.99884 | 19980 ft | 383 kts | 346° |
| 2026-02-18 12:39 | 42.34431 | 11.99336 | 20530 ft | 385 kts | 346° |
| 2026-02-18 12:39 | 42.37091 | 11.98785 | 21064 ft | 388 kts | 346° |
| 2026-02-18 12:39 | 42.39770 | 11.98232 | 21607 ft | 390 kts | 346° |
| 2026-02-18 12:40 | 42.42462 | 11.97678 | 22154 ft | 392 kts | 346° |
| 2026-02-18 12:40 | 42.45168 | 11.97121 | 22667 ft | 394 kts | 346° |
| 2026-02-18 12:40 | 42.47884 | 11.96562 | 23172 ft | 397 kts | 346° |
| 2026-02-18 12:40 | 42.50628 | 11.95997 | 23638 ft | 399 kts | 345° |
| 2026-02-18 12:41 | 42.53376 | 11.95426 | 24031 ft | 401 kts | 345° |